Ennice, NC

4:27 AM EDT on September 19, 2014 (GMT -0400)
High Country Lights | Change Station
CLOSE
Current Station
Personal Weather Station
Location: Ennice, NC
Elevation: 2871 ft
Nearby Weather Stations

Elev 2871 ft 36.51 °N, 80.95 °W | Updated 7 minutes ago

Overcast
Overcast
59.5 °F
Feels Like 59.5 °F
N
0.0
Wind Variable Wind from ENE
Gusts 0.0 mph

Today
High -- | Low -- °F
--% Chance of Precip.
Yesterday
High -- | Low -- °F
Precip. -- in
7:09 AM 7:25 PM
Waning Crescent, 21% visible
Pressure 30.15 in
Visibility 7.0 miles
Clouds Scattered Clouds 1100 ft
Overcast 5500 ft
Dew Point 59 °F
Humidity 97%
Rainfall 0.00 in
Snow Depth Not available.
UV 0 out of 12
Pollen 6.70 out of 12
Air Quality Not available.
Flu Activity Not available.
METAR KHLX 190815Z AUTO 00000KT 7SM SCT011 OVC055 15/15 A3015 RMK AO2 T01500145

More Conditions Fewer Conditions

Pressure 30.15 in
Visibility 7.0 miles
Clouds Scattered Clouds 1100 ft
Overcast 5500 ft
Dew Point 59 °F
Humidity 97%
Rainfall 0.00 in
Snow Depth Not available.
UV 0 out of 12
Pollen 6.70 out of 12
Air Quality Not available.
Flu Activity Not available.
METAR KHLX 190815Z AUTO 00000KT 7SM SCT011 OVC055 15/15 A3015 RMK AO2 T01500145

More Conditions Fewer Conditions

10-Day Weather Forecast

Almanac

Astronomy

Sep. 19, 2014 Rise Set
Actual Time 7:09 AM EDT 7:25 PM EDT
Civil Twilight 6:43 AM EDT 7:51 PM EDT
Nautical Twilight 6:13 AM EDT 8:21 PM EDT
Astronomical Twilight 5:42 AM EDT 8:51 PM EDT
Moon 2:58 AM EDT 4:48 PM EDT
Length of Visible Light 13h 07m
Length of Day
12h 15m
Tomorrow will be 2m 19s shorter.
Waning Crescent, 21% of the Moon is Illuminated
Today
Waning Crescent
Sep 24
New
Oct 1
First Quarter
Oct 8
Full
Oct 15
Last Quarter

Today's Extremes

State Highs State Lows

Community

WunderPhotos

Upload Photos

1,754,579 photos uploaded!

Nearby

Snow Depth

Station Depth Elevation
No new snow has been reported.

Earthquake Activity

City Distance Mag. Time & Date
No recent earthquake activity has been reported nearby.
Minimum magnitude displayed is 2.5.

Coastal Water Temperatures

Place Temperature
No Stations Reporting

Nearby Weather Stations